PWSweather.com
Personal Weather Stations
Station Observations
KMNMADEL2
West Of High School, Madelia, MN 56062

West Of High SchoolMadelia, MN 56062

Lat: 44.04636, Lon: -94.4163437

Elevation: 1006

Station Type: Wireless Davis Instruments Vantage Pro2 Plus

http://www.madeliasliveweather.com/

Latest ConditionsUpdated 6:15:02 PM CST Sunday, Jan 22, 2017
Currently Today's Max Today's Min Today's Average
Temperature 34.3°F1.3°C 38.1°F3.4°C 34.1°F1.2°C 35.3°F1.8°C
Dew Point 32.2°F0.1°C 36.3°F2.4°C 32.0°F0.0°C 33.4°F0.8°C
Winds 7.0 mph NW11.3 kmh NW 10.0 mph NNW16.1 kmh NNW - 3.7 mph 6.0 kmh
Wind Gusts 11.0 mph17.7 kmh 13.0 mph20.9 kmh - -
Humidity 92% 93% 92% 93%
Pressure 29.81 in1009.5 mb 29.81 in1009.5 mb 29.56 in1001.0 mb -
Hour Temp Dew Point Humidity Winds Wind Gusts Pressure Precip Precip Rate Daily Precip Total
06:15 PM 34.3°F1.3°C 32.2°F0.1°C 92% 7.0 mph NW11.3 kmh NW 11.0 mph17.7 kmh 29.81 in1009.5 mb 0.00 in0.0 mm 0.00 in0.0 mm 0.01 in0.3 mm
06:10 PM 34.4°F1.3°C 32.3°F0.2°C 92% 3.0 mph NW4.8 kmh NW 11.0 mph17.7 kmh 29.81 in1009.5 mb 0.00 in0.0 mm 0.00 in0.0 mm 0.01 in0.3 mm
06:05 PM 34.4°F1.3°C 32.3°F0.2°C 92% 5.0 mph NW8.0 kmh NW 11.0 mph17.7 kmh 29.81 in1009.5 mb 0.00 in0.0 mm 0.00 in0.0 mm 0.01 in0.3 mm
06:00 PM 34.4°F1.3°C 32.3°F0.2°C 92% 5.0 mph WNW8.0 kmh WNW 11.0 mph17.7 kmh 29.81 in1009.5 mb 0.00 in0.0 mm 0.00 in0.0 mm 0.01 in0.3 mm
05:55 PM 34.4°F1.3°C 32.3°F0.2°C 92% 4.0 mph NW6.4 kmh NW 13.0 mph20.9 kmh 29.81 in1009.5 mb 0.00 in0.0 mm 0.00 in0.0 mm 0.01 in0.3 mm
05:50 PM 34.5°F1.4°C 32.4°F0.2°C 92% 7.0 mph NNW11.3 kmh NNW 11.0 mph17.7 kmh 29.81 in1009.5 mb 0.00 in0.0 mm 0.00 in0.0 mm 0.01 in0.3 mm
05:45 PM 34.5°F1.4°C 32.4°F0.2°C 92% 7.0 mph WNW11.3 kmh WNW 11.0 mph17.7 kmh 29.80 in1009.1 mb 0.00 in0.0 mm 0.00 in0.0 mm 0.01 in0.3 mm
05:40 PM 34.7°F1.5°C 32.6°F0.3°C 92% 5.0 mph NW8.0 kmh NW 11.0 mph17.7 kmh 29.80 in1009.1 mb 0.00 in0.0 mm 0.00 in0.0 mm 0.01 in0.3 mm
05:35 PM 34.8°F1.6°C 32.7°F0.4°C 92% 6.0 mph NW9.7 kmh NW 11.0 mph17.7 kmh 29.80 in1009.1 mb 0.00 in0.0 mm 0.00 in0.0 mm 0.01 in0.3 mm
05:30 PM 34.9°F1.6°C 32.8°F0.4°C 92% 5.0 mph NW8.0 kmh NW 11.0 mph17.7 kmh 29.80 in1009.1 mb 0.00 in0.0 mm 0.00 in0.0 mm 0.01 in0.3 mm
05:25 PM 35.0°F1.7°C 32.9°F0.5°C 92% 10.0 mph NNW16.1 kmh NNW 11.0 mph17.7 kmh 29.80 in1009.1 mb 0.00 in0.0 mm 0.00 in0.0 mm 0.01 in0.3 mm
05:20 PM 35.1°F1.7°C 33.0°F0.6°C 92% 4.0 mph NW6.4 kmh NW 11.0 mph17.7 kmh 29.80 in1009.1 mb 0.00 in0.0 mm 0.00 in0.0 mm 0.01 in0.3 mm
05:15 PM 35.1°F1.7°C 33.0°F0.6°C 92% 3.0 mph NW4.8 kmh NW 11.0 mph17.7 kmh 29.79 in1008.8 mb 0.00 in0.0 mm 0.00 in0.0 mm 0.01 in0.3 mm
05:05 PM 35.2°F1.8°C 33.1°F0.6°C 92% 6.0 mph NW9.7 kmh NW 10.0 mph16.1 kmh 29.80 in1009.1 mb 0.00 in0.0 mm 0.00 in0.0 mm 0.01 in0.3 mm
05:00 PM 35.3°F1.8°C 33.2°F0.7°C 92% 4.0 mph NW6.4 kmh NW 10.0 mph16.1 kmh 29.79 in1008.8 mb 0.00 in0.0 mm 0.00 in0.0 mm 0.01 in0.3 mm
04:55 PM 35.4°F1.9°C 33.3°F0.7°C 92% 5.0 mph NNW8.0 kmh NNW 10.0 mph16.1 kmh 29.79 in1008.8 mb 0.00 in0.0 mm 0.00 in0.0 mm 0.01 in0.3 mm
04:40 PM 35.6°F2.0°C 33.5°F0.8°C 92% 4.0 mph NNW6.4 kmh NNW 10.0 mph16.1 kmh 29.78 in1008.5 mb 0.00 in0.0 mm 0.00 in0.0 mm 0.01 in0.3 mm
04:35 PM 35.6°F2.0°C 33.5°F0.8°C 92% 5.0 mph NNW8.0 kmh NNW 10.0 mph16.1 kmh 29.78 in1008.5 mb 0.00 in0.0 mm 0.00 in0.0 mm 0.01 in0.3 mm
04:25 PM 35.7°F2.1°C 33.6°F0.9°C 92% 5.0 mph NNW8.0 kmh NNW 13.0 mph20.9 kmh 29.78 in1008.5 mb 0.00 in0.0 mm 0.00 in0.0 mm 0.01 in0.3 mm
04:20 PM 35.8°F2.1°C 33.7°F0.9°C 92% 5.0 mph NW8.0 kmh NW 13.0 mph20.9 kmh 29.78 in1008.5 mb 0.00 in0.0 mm 0.00 in0.0 mm 0.01 in0.3 mm
04:15 PM 35.9°F2.2°C 33.8°F1.0°C 92% 7.0 mph NW11.3 kmh NW 13.0 mph20.9 kmh 29.78 in1008.5 mb 0.00 in0.0 mm 0.00 in0.0 mm 0.01 in0.3 mm
04:10 PM 36.0°F2.2°C 33.9°F1.1°C 92% 4.0 mph NW6.4 kmh NW 12.0 mph19.3 kmh 29.78 in1008.5 mb 0.00 in0.0 mm 0.00 in0.0 mm 0.01 in0.3 mm
04:05 PM 36.1°F2.3°C 34.0°F1.1°C 92% 4.0 mph NW6.4 kmh NW 12.0 mph19.3 kmh 29.78 in1008.5 mb 0.00 in0.0 mm 0.00 in0.0 mm 0.01 in0.3 mm
04:00 PM 36.1°F2.3°C 34.0°F1.1°C 92% 6.0 mph NW9.7 kmh NW 12.0 mph19.3 kmh 29.78 in1008.5 mb 0.00 in0.0 mm 0.00 in0.0 mm 0.01 in0.3 mm
03:55 PM 36.2°F2.3°C 34.1°F1.2°C 92% 4.0 mph NW6.4 kmh NW 10.0 mph16.1 kmh 29.78 in1008.5 mb 0.00 in0.0 mm 0.00 in0.0 mm 0.01 in0.3 mm
03:50 PM 36.3°F2.4°C 34.2°F1.2°C 92% 5.0 mph N8.0 kmh N 10.0 mph16.1 kmh 29.78 in1008.5 mb 0.00 in0.0 mm 0.00 in0.0 mm 0.01 in0.3 mm
03:45 PM 36.5°F2.5°C 34.4°F1.3°C 92% 7.0 mph NW11.3 kmh NW 10.0 mph16.1 kmh 29.78 in1008.5 mb 0.00 in0.0 mm 0.00 in0.0 mm 0.01 in0.3 mm
03:40 PM 36.5°F2.5°C 34.4°F1.3°C 92% 5.0 mph NW8.0 kmh NW 10.0 mph16.1 kmh 29.78 in1008.5 mb 0.00 in0.0 mm 0.00 in0.0 mm 0.01 in0.3 mm
03:35 PM 36.6°F2.6°C 34.5°F1.4°C 92% 9.0 mph NW14.5 kmh NW 10.0 mph16.1 kmh 29.78 in1008.5 mb 0.00 in0.0 mm 0.00 in0.0 mm 0.01 in0.3 mm
03:30 PM 36.8°F2.7°C 34.7°F1.5°C 92% 6.0 mph NW9.7 kmh NW 10.0 mph16.1 kmh 29.78 in1008.5 mb 0.00 in0.0 mm 0.00 in0.0 mm 0.01 in0.3 mm
03:25 PM 36.9°F2.7°C 34.8°F1.6°C 92% 5.0 mph WNW8.0 kmh WNW 10.0 mph16.1 kmh 29.77 in1008.1 mb 0.00 in0.0 mm 0.00 in0.0 mm 0.01 in0.3 mm
03:20 PM 37.0°F2.8°C 34.9°F1.6°C 92% 5.0 mph NW8.0 kmh NW 10.0 mph16.1 kmh 29.78 in1008.5 mb 0.00 in0.0 mm 0.00 in0.0 mm 0.01 in0.3 mm
03:15 PM 37.2°F2.9°C 35.1°F1.7°C 92% 4.0 mph NW6.4 kmh NW 9.0 mph14.5 kmh 29.77 in1008.1 mb 0.00 in0.0 mm 0.00 in0.0 mm 0.01 in0.3 mm
03:10 PM 37.4°F3.0°C 35.3°F1.8°C 92% 6.0 mph NW9.7 kmh NW 9.0 mph14.5 kmh 29.77 in1008.1 mb 0.00 in0.0 mm 0.00 in0.0 mm 0.01 in0.3 mm
03:05 PM 37.4°F3.0°C 35.3°F1.8°C 92% 5.0 mph NW8.0 kmh NW 8.0 mph12.9 kmh 29.77 in1008.1 mb 0.00 in0.0 mm 0.00 in0.0 mm 0.01 in0.3 mm
03:00 PM 37.4°F3.0°C 35.3°F1.8°C 92% 3.0 mph NW4.8 kmh NW 6.0 mph9.7 kmh 29.77 in1008.1 mb 0.00 in0.0 mm 0.00 in0.0 mm 0.01 in0.3 mm
02:55 PM 37.5°F3.1°C 35.4°F1.9°C 92% 4.0 mph NNW6.4 kmh NNW 9.0 mph14.5 kmh 29.77 in1008.1 mb 0.00 in0.0 mm 0.00 in0.0 mm 0.01 in0.3 mm
02:50 PM 37.6°F3.1°C 35.5°F1.9°C 92% 4.0 mph NNW6.4 kmh NNW 9.0 mph14.5 kmh 29.77 in1008.1 mb 0.00 in0.0 mm 0.00 in0.0 mm 0.01 in0.3 mm
02:45 PM 37.6°F3.1°C 35.5°F1.9°C 92% 3.0 mph NW4.8 kmh NW 9.0 mph14.5 kmh 29.76 in1007.8 mb 0.00 in0.0 mm 0.00 in0.0 mm 0.01 in0.3 mm
02:40 PM 37.6°F3.1°C 35.5°F1.9°C 92% 5.0 mph NNW8.0 kmh NNW 9.0 mph14.5 kmh 29.76 in1007.8 mb 0.00 in0.0 mm 0.00 in0.0 mm 0.01 in0.3 mm
02:35 PM 37.7°F3.2°C 35.6°F2.0°C 92% 7.0 mph NW11.3 kmh NW 9.0 mph14.5 kmh 29.76 in1007.8 mb 0.00 in0.0 mm 0.00 in0.0 mm 0.01 in0.3 mm
02:30 PM 37.7°F3.2°C 35.6°F2.0°C 92% 3.0 mph NW4.8 kmh NW 6.0 mph9.7 kmh 29.76 in1007.8 mb 0.00 in0.0 mm 0.00 in0.0 mm 0.01 in0.3 mm
02:25 PM 37.7°F3.2°C 35.6°F2.0°C 92% 5.0 mph NNW8.0 kmh NNW 10.0 mph16.1 kmh 29.76 in1007.8 mb 0.00 in0.0 mm 0.00 in0.0 mm 0.01 in0.3 mm
02:20 PM 37.6°F3.1°C 35.5°F1.9°C 92% 5.0 mph NNW8.0 kmh NNW 10.0 mph16.1 kmh 29.76 in1007.8 mb 0.00 in0.0 mm 0.00 in0.0 mm 0.01 in0.3 mm
02:15 PM 37.7°F3.2°C 35.6°F2.0°C 92% 5.0 mph NW8.0 kmh NW 9.0 mph14.5 kmh 29.76 in1007.8 mb 0.00 in0.0 mm 0.00 in0.0 mm 0.01 in0.3 mm
02:10 PM 37.8°F3.2°C 35.7°F2.1°C 92% 3.0 mph NNW4.8 kmh NNW 9.0 mph14.5 kmh 29.76 in1007.8 mb 0.00 in0.0 mm 0.00 in0.0 mm 0.01 in0.3 mm
02:05 PM 37.8°F3.2°C 35.7°F2.1°C 92% 4.0 mph NW6.4 kmh NW 9.0 mph14.5 kmh 29.76 in1007.8 mb 0.00 in0.0 mm 0.00 in0.0 mm 0.01 in0.3 mm
02:00 PM 37.9°F3.3°C 35.8°F2.1°C 92% 5.0 mph WNW8.0 kmh WNW 9.0 mph14.5 kmh 29.76 in1007.8 mb 0.00 in0.0 mm 0.00 in0.0 mm 0.01 in0.3 mm
01:55 PM 37.9°F3.3°C 36.1°F2.3°C 93% 3.0 mph NW4.8 kmh NW 11.0 mph17.7 kmh 29.76 in1007.8 mb 0.00 in0.0 mm 0.00 in0.0 mm 0.01 in0.3 mm
01:50 PM 38.0°F3.3°C 36.2°F2.3°C 93% 4.0 mph WNW6.4 kmh WNW 11.0 mph17.7 kmh 29.75 in1007.5 mb 0.00 in0.0 mm 0.00 in0.0 mm 0.01 in0.3 mm
01:45 PM 38.1°F3.4°C 36.3°F2.4°C 93% 4.0 mph NW6.4 kmh NW 11.0 mph17.7 kmh 29.75 in1007.5 mb 0.00 in0.0 mm 0.00 in0.0 mm 0.01 in0.3 mm
01:40 PM 38.1°F3.4°C 36.3°F2.4°C 93% 3.0 mph NW4.8 kmh NW 11.0 mph17.7 kmh 29.75 in1007.5 mb 0.00 in0.0 mm 0.00 in0.0 mm 0.01 in0.3 mm
01:35 PM 38.1°F3.4°C 36.3°F2.4°C 93% 2.0 mph NNW3.2 kmh NNW 10.0 mph16.1 kmh 29.75 in1007.5 mb 0.00 in0.0 mm 0.00 in0.0 mm 0.01 in0.3 mm
01:30 PM 38.1°F3.4°C 36.3°F2.4°C 93% 5.0 mph WNW8.0 kmh WNW 10.0 mph16.1 kmh 29.75 in1007.5 mb 0.00 in0.0 mm 0.00 in0.0 mm 0.01 in0.3 mm
01:25 PM 38.0°F3.3°C 36.2°F2.3°C 93% 4.0 mph NW6.4 kmh NW 10.0 mph16.1 kmh 29.75 in1007.5 mb 0.00 in0.0 mm 0.00 in0.0 mm 0.01 in0.3 mm
01:20 PM 37.9°F3.3°C 36.1°F2.3°C 93% 3.0 mph NW4.8 kmh NW 10.0 mph16.1 kmh 29.75 in1007.5 mb 0.00 in0.0 mm 0.00 in0.0 mm 0.01 in0.3 mm
01:15 PM 37.9°F3.3°C 36.1°F2.3°C 93% 3.0 mph NW4.8 kmh NW 10.0 mph16.1 kmh 29.76 in1007.8 mb 0.00 in0.0 mm 0.00 in0.0 mm 0.01 in0.3 mm
01:10 PM 37.8°F3.2°C 36.0°F2.2°C 93% 6.0 mph NW9.7 kmh NW 10.0 mph16.1 kmh 29.75 in1007.5 mb 0.00 in0.0 mm 0.00 in0.0 mm 0.01 in0.3 mm
01:05 PM 37.8°F3.2°C 36.0°F2.2°C 93% 5.0 mph NW8.0 kmh NW 10.0 mph16.1 kmh 29.75 in1007.5 mb 0.00 in0.0 mm 0.00 in0.0 mm 0.01 in0.3 mm
01:00 PM 37.8°F3.2°C 36.0°F2.2°C 93% 5.0 mph NW8.0 kmh NW 7.0 mph11.3 kmh 29.75 in1007.5 mb 0.00 in0.0 mm 0.00 in0.0 mm 0.01 in0.3 mm
12:55 PM 37.8°F3.2°C 36.0°F2.2°C 93% 4.0 mph NW6.4 kmh NW 11.0 mph17.7 kmh 29.75 in1007.5 mb 0.00 in0.0 mm 0.00 in0.0 mm 0.01 in0.3 mm
12:50 PM 37.8°F3.2°C 36.0°F2.2°C 93% 2.0 mph WNW3.2 kmh WNW 11.0 mph17.7 kmh 29.75 in1007.5 mb 0.00 in0.0 mm 0.00 in0.0 mm 0.01 in0.3 mm
12:45 PM 37.4°F3.0°C 35.6°F2.0°C 93% 4.0 mph NNW6.4 kmh NNW 11.0 mph17.7 kmh 29.75 in1007.5 mb 0.00 in0.0 mm 0.00 in0.0 mm 0.01 in0.3 mm
12:40 PM 37.2°F2.9°C 35.4°F1.9°C 93% 4.0 mph NW6.4 kmh NW 11.0 mph17.7 kmh 29.75 in1007.5 mb 0.00 in0.0 mm 0.00 in0.0 mm 0.01 in0.3 mm
12:35 PM 37.2°F2.9°C 35.4°F1.9°C 93% 5.0 mph NW8.0 kmh NW 11.0 mph17.7 kmh 29.75 in1007.5 mb 0.00 in0.0 mm 0.00 in0.0 mm 0.01 in0.3 mm
12:30 PM 37.2°F2.9°C 35.4°F1.9°C 93% 8.0 mph N12.9 kmh N 10.0 mph16.1 kmh 29.75 in1007.5 mb 0.00 in0.0 mm 0.00 in0.0 mm 0.01 in0.3 mm
12:25 PM 37.1°F2.8°C 35.3°F1.8°C 93% 5.0 mph NNW8.0 kmh NNW 9.0 mph14.5 kmh 29.75 in1007.5 mb 0.00 in0.0 mm 0.00 in0.0 mm 0.01 in0.3 mm
12:20 PM 37.1°F2.8°C 35.3°F1.8°C 93% 5.0 mph WNW8.0 kmh WNW 9.0 mph14.5 kmh 29.75 in1007.5 mb 0.00 in0.0 mm 0.00 in0.0 mm 0.01 in0.3 mm
12:15 PM 37.2°F2.9°C 35.4°F1.9°C 93% 6.0 mph NW9.7 kmh NW 9.0 mph14.5 kmh 29.76 in1007.8 mb 0.00 in0.0 mm 0.00 in0.0 mm 0.01 in0.3 mm
12:10 PM 37.1°F2.8°C 35.3°F1.8°C 93% 6.0 mph NW9.7 kmh NW 9.0 mph14.5 kmh 29.75 in1007.5 mb 0.00 in0.0 mm 0.00 in0.0 mm 0.01 in0.3 mm
12:05 PM 36.9°F2.7°C 35.1°F1.7°C 93% 4.0 mph NW6.4 kmh NW 9.0 mph14.5 kmh 29.75 in1007.5 mb 0.00 in0.0 mm 0.00 in0.0 mm 0.01 in0.3 mm
12:00 PM 36.7°F2.6°C 34.9°F1.6°C 93% 8.0 mph NW12.9 kmh NW 9.0 mph14.5 kmh 29.75 in1007.5 mb 0.00 in0.0 mm 0.00 in0.0 mm 0.01 in0.3 mm
11:55 AM 36.6°F2.6°C 34.8°F1.6°C 93% 4.0 mph NNW6.4 kmh NNW 9.0 mph14.5 kmh 29.76 in1007.8 mb 0.00 in0.0 mm 0.00 in0.0 mm 0.01 in0.3 mm
11:50 AM 36.6°F2.6°C 34.8°F1.6°C 93% 6.0 mph NW9.7 kmh NW 9.0 mph14.5 kmh 29.76 in1007.8 mb 0.00 in0.0 mm 0.00 in0.0 mm 0.01 in0.3 mm
11:45 AM 36.5°F2.5°C 34.7°F1.5°C 93% 5.0 mph N8.0 kmh N 9.0 mph14.5 kmh 29.76 in1007.8 mb 0.00 in0.0 mm 0.00 in0.0 mm 0.01 in0.3 mm
11:40 AM 36.5°F2.5°C 34.7°F1.5°C 93% 2.0 mph WNW3.2 kmh WNW 8.0 mph12.9 kmh 29.76 in1007.8 mb 0.00 in0.0 mm 0.00 in0.0 mm 0.01 in0.3 mm
11:35 AM 36.4°F2.4°C 34.6°F1.4°C 93% 5.0 mph N8.0 kmh N 8.0 mph12.9 kmh 29.76 in1007.8 mb 0.00 in0.0 mm 0.00 in0.0 mm 0.01 in0.3 mm
11:30 AM 36.3°F2.4°C 34.5°F1.4°C 93% 5.0 mph NW8.0 kmh NW 8.0 mph12.9 kmh 29.76 in1007.8 mb 0.00 in0.0 mm 0.00 in0.0 mm 0.01 in0.3 mm
11:25 AM 36.2°F2.3°C 34.4°F1.3°C 93% 2.0 mph NW3.2 kmh NW 10.0 mph16.1 kmh 29.76 in1007.8 mb 0.00 in0.0 mm 0.00 in0.0 mm 0.01 in0.3 mm
11:20 AM 36.1°F2.3°C 34.3°F1.3°C 93% 5.0 mph WNW8.0 kmh WNW 10.0 mph16.1 kmh 29.76 in1007.8 mb 0.00 in0.0 mm 0.00 in0.0 mm 0.01 in0.3 mm
11:15 AM 36.1°F2.3°C 34.3°F1.3°C 93% 2.0 mph N3.2 kmh N 10.0 mph16.1 kmh 29.76 in1007.8 mb 0.00 in0.0 mm 0.00 in0.0 mm 0.01 in0.3 mm
11:10 AM 36.0°F2.2°C 34.2°F1.2°C 93% 5.0 mph NW8.0 kmh NW 10.0 mph16.1 kmh 29.76 in1007.8 mb 0.00 in0.0 mm 0.00 in0.0 mm 0.01 in0.3 mm
11:05 AM 35.9°F2.2°C 34.1°F1.2°C 93% 8.0 mph NNW12.9 kmh NNW 10.0 mph16.1 kmh 29.76 in1007.8 mb 0.00 in0.0 mm 0.00 in0.0 mm 0.01 in0.3 mm
11:00 AM 35.8°F2.1°C 34.0°F1.1°C 93% 4.0 mph NW6.4 kmh NW 9.0 mph14.5 kmh 29.76 in1007.8 mb 0.00 in0.0 mm 0.00 in0.0 mm 0.01 in0.3 mm
10:55 AM 35.8°F2.1°C 34.0°F1.1°C 93% 6.0 mph NW9.7 kmh NW 11.0 mph17.7 kmh 29.75 in1007.5 mb 0.00 in0.0 mm 0.00 in0.0 mm 0.01 in0.3 mm
10:50 AM 35.7°F2.1°C 33.9°F1.1°C 93% 6.0 mph NW9.7 kmh NW 11.0 mph17.7 kmh 29.75 in1007.5 mb 0.00 in0.0 mm 0.00 in0.0 mm 0.01 in0.3 mm
10:45 AM 35.7°F2.1°C 33.9°F1.1°C 93% 5.0 mph NW8.0 kmh NW 11.0 mph17.7 kmh 29.75 in1007.5 mb 0.00 in0.0 mm 0.00 in0.0 mm 0.01 in0.3 mm
10:40 AM 35.6°F2.0°C 33.8°F1.0°C 93% 7.0 mph N11.3 kmh N 9.0 mph14.5 kmh 29.75 in1007.5 mb 0.00 in0.0 mm 0.00 in0.0 mm 0.01 in0.3 mm
10:35 AM 35.6°F2.0°C 33.8°F1.0°C 93% 9.0 mph NNW14.5 kmh NNW 9.0 mph14.5 kmh 29.75 in1007.5 mb 0.00 in0.0 mm 0.00 in0.0 mm 0.01 in0.3 mm
10:30 AM 35.4°F1.9°C 33.6°F0.9°C 93% 3.0 mph NW4.8 kmh NW 7.0 mph11.3 kmh 29.75 in1007.5 mb 0.00 in0.0 mm 0.00 in0.0 mm 0.01 in0.3 mm
10:25 AM 35.3°F1.8°C 33.5°F0.8°C 93% 3.0 mph NW4.8 kmh NW 7.0 mph11.3 kmh 29.75 in1007.5 mb 0.00 in0.0 mm 0.00 in0.0 mm 0.01 in0.3 mm
10:20 AM 35.2°F1.8°C 33.4°F0.8°C 93% 4.0 mph W6.4 kmh W 7.0 mph11.3 kmh 29.75 in1007.5 mb 0.00 in0.0 mm 0.00 in0.0 mm 0.01 in0.3 mm
10:15 AM 35.1°F1.7°C 33.3°F0.7°C 93% 3.0 mph NW4.8 kmh NW 7.0 mph11.3 kmh 29.75 in1007.5 mb 0.00 in0.0 mm 0.00 in0.0 mm 0.01 in0.3 mm
10:10 AM 35.0°F1.7°C 33.2°F0.7°C 93% 5.0 mph NW8.0 kmh NW 7.0 mph11.3 kmh 29.75 in1007.5 mb 0.00 in0.0 mm 0.00 in0.0 mm 0.01 in0.3 mm
10:05 AM 35.0°F1.7°C 33.2°F0.7°C 93% 4.0 mph NW6.4 kmh NW 7.0 mph11.3 kmh 29.75 in1007.5 mb 0.00 in0.0 mm 0.00 in0.0 mm 0.01 in0.3 mm
10:00 AM 34.9°F1.6°C 33.1°F0.6°C 93% 4.0 mph NW6.4 kmh NW 6.0 mph9.7 kmh 29.75 in1007.5 mb 0.00 in0.0 mm 0.00 in0.0 mm 0.01 in0.3 mm
09:55 AM 34.9°F1.6°C 33.1°F0.6°C 93% 5.0 mph NW8.0 kmh NW 7.0 mph11.3 kmh 29.74 in1007.1 mb 0.00 in0.0 mm 0.00 in0.0 mm 0.01 in0.3 mm
09:50 AM 34.8°F1.6°C 33.0°F0.6°C 93% 2.0 mph WNW3.2 kmh WNW 7.0 mph11.3 kmh 29.74 in1007.1 mb 0.00 in0.0 mm 0.00 in0.0 mm 0.01 in0.3 mm
09:45 AM 34.8°F1.6°C 33.0°F0.6°C 93% 4.0 mph NW6.4 kmh NW 7.0 mph11.3 kmh 29.74 in1007.1 mb 0.00 in0.0 mm 0.00 in0.0 mm 0.01 in0.3 mm
09:40 AM 34.7°F1.5°C 32.9°F0.5°C 93% 2.0 mph NW3.2 kmh NW 6.0 mph9.7 kmh 29.74 in1007.1 mb 0.00 in0.0 mm 0.00 in0.0 mm 0.01 in0.3 mm
09:35 AM 34.6°F1.4°C 32.8°F0.4°C 93% 1.0 mph WNW1.6 kmh WNW 6.0 mph9.7 kmh 29.74 in1007.1 mb 0.00 in0.0 mm 0.00 in0.0 mm 0.01 in0.3 mm
09:30 AM 34.5°F1.4°C 32.7°F0.4°C 93% 3.0 mph NW4.8 kmh NW 5.0 mph8.0 kmh 29.73 in1006.8 mb 0.00 in0.0 mm 0.00 in0.0 mm 0.01 in0.3 mm
09:25 AM 34.5°F1.4°C 32.7°F0.4°C 93% 3.0 mph NW4.8 kmh NW 7.0 mph11.3 kmh 29.73 in1006.8 mb 0.00 in0.0 mm 0.00 in0.0 mm 0.01 in0.3 mm
09:20 AM 34.4°F1.3°C 32.6°F0.3°C 93% 3.0 mph WNW4.8 kmh WNW 7.0 mph11.3 kmh 29.73 in1006.8 mb 0.00 in0.0 mm 0.00 in0.0 mm 0.01 in0.3 mm
09:15 AM 34.4°F1.3°C 32.6°F0.3°C 93% 3.0 mph NW4.8 kmh NW 7.0 mph11.3 kmh 29.73 in1006.8 mb 0.00 in0.0 mm 0.00 in0.0 mm 0.01 in0.3 mm
09:10 AM 34.4°F1.3°C 32.6°F0.3°C 93% 4.0 mph WNW6.4 kmh WNW 6.0 mph9.7 kmh 29.72 in1006.4 mb 0.00 in0.0 mm 0.00 in0.0 mm 0.01 in0.3 mm
09:05 AM 34.4°F1.3°C 32.6°F0.3°C 93% 3.0 mph NW4.8 kmh NW 5.0 mph8.0 kmh 29.73 in1006.8 mb 0.00 in0.0 mm 0.00 in0.0 mm 0.01 in0.3 mm
09:00 AM 34.3°F1.3°C 32.5°F0.3°C 93% 5.0 mph NW8.0 kmh NW 5.0 mph8.0 kmh 29.73 in1006.8 mb 0.00 in0.0 mm 0.00 in0.0 mm 0.01 in0.3 mm
08:55 AM 34.3°F1.3°C 32.5°F0.3°C 93% 5.0 mph NW8.0 kmh NW 7.0 mph11.3 kmh 29.72 in1006.4 mb 0.00 in0.0 mm 0.00 in0.0 mm 0.01 in0.3 mm
08:50 AM 34.4°F1.3°C 32.6°F0.3°C 93% 4.0 mph NW6.4 kmh NW 7.0 mph11.3 kmh 29.72 in1006.4 mb 0.00 in0.0 mm 0.00 in0.0 mm 0.01 in0.3 mm
08:45 AM 34.4°F1.3°C 32.6°F0.3°C 93% 4.0 mph NW6.4 kmh NW 7.0 mph11.3 kmh 29.72 in1006.4 mb 0.00 in0.0 mm 0.00 in0.0 mm 0.01 in0.3 mm
08:40 AM 34.4°F1.3°C 32.6°F0.3°C 93% 3.0 mph NW4.8 kmh NW 7.0 mph11.3 kmh 29.72 in1006.4 mb 0.00 in0.0 mm 0.00 in0.0 mm 0.01 in0.3 mm
08:35 AM 34.3°F1.3°C 32.5°F0.3°C 93% 3.0 mph NW4.8 kmh NW 5.0 mph8.0 kmh 29.72 in1006.4 mb 0.00 in0.0 mm 0.00 in0.0 mm 0.01 in0.3 mm
08:30 AM 34.3°F1.3°C 32.5°F0.3°C 93% 3.0 mph NW4.8 kmh NW 4.0 mph6.4 kmh 29.72 in1006.4 mb 0.00 in0.0 mm 0.00 in0.0 mm 0.01 in0.3 mm
08:25 AM 34.3°F1.3°C 32.5°F0.3°C 93% 5.0 mph NW8.0 kmh NW 7.0 mph11.3 kmh 29.72 in1006.4 mb 0.00 in0.0 mm 0.00 in0.0 mm 0.01 in0.3 mm
08:20 AM 34.3°F1.3°C 32.5°F0.3°C 93% 4.0 mph NW6.4 kmh NW 7.0 mph11.3 kmh 29.71 in1006.1 mb 0.00 in0.0 mm 0.00 in0.0 mm 0.01 in0.3 mm
08:15 AM 34.3°F1.3°C 32.5°F0.3°C 93% 3.0 mph WNW4.8 kmh WNW 6.0 mph9.7 kmh 29.71 in1006.1 mb 0.00 in0.0 mm 0.00 in0.0 mm 0.01 in0.3 mm
08:10 AM 34.3°F1.3°C 32.5°F0.3°C 93% 2.0 mph NW3.2 kmh NW 6.0 mph9.7 kmh 29.71 in1006.1 mb 0.00 in0.0 mm 0.00 in0.0 mm 0.01 in0.3 mm
08:05 AM 34.3°F1.3°C 32.5°F0.3°C 93% 3.0 mph NW4.8 kmh NW 6.0 mph9.7 kmh 29.70 in1005.8 mb 0.00 in0.0 mm 0.00 in0.0 mm 0.01 in0.3 mm
08:00 AM 34.3°F1.3°C 32.5°F0.3°C 93% 4.0 mph NW6.4 kmh NW 6.0 mph9.7 kmh 29.70 in1005.8 mb 0.00 in0.0 mm 0.00 in0.0 mm 0.01 in0.3 mm
07:55 AM 34.3°F1.3°C 32.5°F0.3°C 93% 2.0 mph NW3.2 kmh NW 5.0 mph8.0 kmh 29.70 in1005.8 mb 0.00 in0.0 mm 0.00 in0.0 mm 0.01 in0.3 mm
07:50 AM 34.2°F1.2°C 32.4°F0.2°C 93% 3.0 mph NW4.8 kmh NW 5.0 mph8.0 kmh 29.70 in1005.8 mb 0.00 in0.0 mm 0.00 in0.0 mm 0.01 in0.3 mm
07:45 AM 34.2°F1.2°C 32.4°F0.2°C 93% 3.0 mph NW4.8 kmh NW 5.0 mph8.0 kmh 29.70 in1005.8 mb 0.00 in0.0 mm 0.00 in0.0 mm 0.01 in0.3 mm
07:40 AM 34.3°F1.3°C 32.5°F0.3°C 93% 3.0 mph NW4.8 kmh NW 5.0 mph8.0 kmh 29.70 in1005.8 mb 0.00 in0.0 mm 0.00 in0.0 mm 0.01 in0.3 mm
07:35 AM 34.2°F1.2°C 32.4°F0.2°C 93% 3.0 mph NW4.8 kmh NW 5.0 mph8.0 kmh 29.69 in1005.4 mb 0.00 in0.0 mm 0.00 in0.0 mm 0.01 in0.3 mm
07:30 AM 34.2°F1.2°C 32.4°F0.2°C 93% 2.0 mph NW3.2 kmh NW 5.0 mph8.0 kmh 29.69 in1005.4 mb 0.00 in0.0 mm 0.00 in0.0 mm 0.01 in0.3 mm
07:25 AM 34.2°F1.2°C 32.4°F0.2°C 93% 3.0 mph NW4.8 kmh NW 6.0 mph9.7 kmh 29.69 in1005.4 mb 0.00 in0.0 mm 0.00 in0.0 mm 0.01 in0.3 mm
07:20 AM 34.1°F1.2°C 32.3°F0.2°C 93% 4.0 mph NW6.4 kmh NW 6.0 mph9.7 kmh 29.69 in1005.4 mb 0.00 in0.0 mm 0.00 in0.0 mm 0.01 in0.3 mm
07:15 AM 34.1°F1.2°C 32.3°F0.2°C 93% 5.0 mph NW8.0 kmh NW 6.0 mph9.7 kmh 29.68 in1005.1 mb 0.00 in0.0 mm 0.00 in0.0 mm 0.01 in0.3 mm
07:10 AM 34.1°F1.2°C 32.3°F0.2°C 93% 2.0 mph NW3.2 kmh NW 6.0 mph9.7 kmh 29.68 in1005.1 mb 0.00 in0.0 mm 0.00 in0.0 mm 0.01 in0.3 mm
07:05 AM 34.1°F1.2°C 32.3°F0.2°C 93% 2.0 mph NW3.2 kmh NW 6.0 mph9.7 kmh 29.68 in1005.1 mb 0.00 in0.0 mm 0.00 in0.0 mm 0.01 in0.3 mm
07:00 AM 34.2°F1.2°C 32.4°F0.2°C 93% 3.0 mph NW4.8 kmh NW 6.0 mph9.7 kmh 29.68 in1005.1 mb 0.00 in0.0 mm 0.00 in0.0 mm 0.01 in0.3 mm
06:55 AM 34.1°F1.2°C 32.3°F0.2°C 93% 3.0 mph NW4.8 kmh NW 5.0 mph8.0 kmh 29.67 in1004.7 mb 0.00 in0.0 mm 0.00 in0.0 mm 0.01 in0.3 mm
06:50 AM 34.1°F1.2°C 32.3°F0.2°C 93% 3.0 mph NW4.8 kmh NW 5.0 mph8.0 kmh 29.67 in1004.7 mb 0.00 in0.0 mm 0.00 in0.0 mm 0.01 in0.3 mm
06:45 AM 34.1°F1.2°C 32.3°F0.2°C 93% 3.0 mph NW4.8 kmh NW 5.0 mph8.0 kmh 29.67 in1004.7 mb 0.00 in0.0 mm 0.00 in0.0 mm 0.01 in0.3 mm
06:40 AM 34.1°F1.2°C 32.3°F0.2°C 93% 2.0 mph NW3.2 kmh NW 5.0 mph8.0 kmh 29.67 in1004.7 mb 0.00 in0.0 mm 0.00 in0.0 mm 0.01 in0.3 mm
06:35 AM 34.1°F1.2°C 32.3°F0.2°C 93% 3.0 mph NW4.8 kmh NW 5.0 mph8.0 kmh 29.66 in1004.4 mb 0.00 in0.0 mm 0.00 in0.0 mm 0.01 in0.3 mm
06:30 AM 34.1°F1.2°C 32.3°F0.2°C 93% 4.0 mph NW6.4 kmh NW 5.0 mph8.0 kmh 29.66 in1004.4 mb 0.00 in0.0 mm 0.00 in0.0 mm 0.01 in0.3 mm
06:25 AM 34.2°F1.2°C 32.4°F0.2°C 93% 3.0 mph NW4.8 kmh NW 7.0 mph11.3 kmh 29.66 in1004.4 mb 0.00 in0.0 mm 0.00 in0.0 mm 0.01 in0.3 mm
06:20 AM 34.2°F1.2°C 32.4°F0.2°C 93% 3.0 mph NW4.8 kmh NW 7.0 mph11.3 kmh 29.65 in1004.1 mb 0.00 in0.0 mm 0.00 in0.0 mm 0.01 in0.3 mm
06:15 AM 34.2°F1.2°C 32.4°F0.2°C 93% 3.0 mph NW4.8 kmh NW 7.0 mph11.3 kmh 29.65 in1004.1 mb 0.00 in0.0 mm 0.00 in0.0 mm 0.01 in0.3 mm
06:10 AM 34.2°F1.2°C 32.4°F0.2°C 93% 1.0 mph NW1.6 kmh NW 7.0 mph11.3 kmh 29.65 in1004.1 mb 0.00 in0.0 mm 0.00 in0.0 mm 0.01 in0.3 mm
06:05 AM 34.2°F1.2°C 32.4°F0.2°C 93% 2.0 mph NNW3.2 kmh NNW 7.0 mph11.3 kmh 29.64 in1003.7 mb 0.00 in0.0 mm 0.00 in0.0 mm 0.01 in0.3 mm
06:00 AM 34.2°F1.2°C 32.4°F0.2°C 93% 1.0 mph NW1.6 kmh NW 7.0 mph11.3 kmh 29.64 in1003.7 mb 0.00 in0.0 mm 0.00 in0.0 mm 0.01 in0.3 mm
05:55 AM 34.3°F1.3°C 32.5°F0.3°C 93% 2.0 mph NW3.2 kmh NW 7.0 mph11.3 kmh 29.64 in1003.7 mb 0.00 in0.0 mm 0.00 in0.0 mm 0.01 in0.3 mm
05:50 AM 34.3°F1.3°C 32.5°F0.3°C 93% 3.0 mph NW4.8 kmh NW 6.0 mph9.7 kmh 29.64 in1003.7 mb 0.00 in0.0 mm 0.00 in0.0 mm 0.01 in0.3 mm
05:45 AM 34.3°F1.3°C 32.5°F0.3°C 93% 3.0 mph NW4.8 kmh NW 6.0 mph9.7 kmh 29.64 in1003.7 mb 0.00 in0.0 mm 0.00 in0.0 mm 0.01 in0.3 mm
05:40 AM 34.2°F1.2°C 32.4°F0.2°C 93% 4.0 mph NNW6.4 kmh NNW 6.0 mph9.7 kmh 29.64 in1003.7 mb 0.00 in0.0 mm 0.00 in0.0 mm 0.01 in0.3 mm
05:35 AM 34.2°F1.2°C 32.4°F0.2°C 93% 4.0 mph NNW6.4 kmh NNW 6.0 mph9.7 kmh 29.64 in1003.7 mb 0.00 in0.0 mm 0.00 in0.0 mm 0.01 in0.3 mm
05:30 AM 34.2°F1.2°C 32.4°F0.2°C 93% 4.0 mph NW6.4 kmh NW 4.0 mph6.4 kmh 29.64 in1003.7 mb 0.00 in0.0 mm 0.00 in0.0 mm 0.01 in0.3 mm
05:25 AM 34.2°F1.2°C 32.4°F0.2°C 93% 1.0 mph NNW1.6 kmh NNW 5.0 mph8.0 kmh 29.64 in1003.7 mb 0.00 in0.0 mm 0.00 in0.0 mm 0.01 in0.3 mm
05:20 AM 34.2°F1.2°C 32.4°F0.2°C 93% 4.0 mph NW6.4 kmh NW 5.0 mph8.0 kmh 29.64 in1003.7 mb 0.00 in0.0 mm 0.00 in0.0 mm 0.01 in0.3 mm
05:15 AM 34.2°F1.2°C 32.4°F0.2°C 93% 1.0 mph NNW1.6 kmh NNW 4.0 mph6.4 kmh 29.63 in1003.4 mb 0.00 in0.0 mm 0.00 in0.0 mm 0.01 in0.3 mm
05:10 AM 34.2°F1.2°C 32.4°F0.2°C 93% 2.0 mph NNW3.2 kmh NNW 4.0 mph6.4 kmh 29.63 in1003.4 mb 0.00 in0.0 mm 0.00 in0.0 mm 0.01 in0.3 mm
05:05 AM 34.2°F1.2°C 32.4°F0.2°C 93% 3.0 mph N4.8 kmh N 4.0 mph6.4 kmh 29.63 in1003.4 mb 0.00 in0.0 mm 0.00 in0.0 mm 0.01 in0.3 mm
05:00 AM 34.2°F1.2°C 32.4°F0.2°C 93% 1.0 mph NNW1.6 kmh NNW 4.0 mph6.4 kmh 29.63 in1003.4 mb 0.00 in0.0 mm 0.00 in0.0 mm 0.01 in0.3 mm
04:55 AM 34.2°F1.2°C 32.4°F0.2°C 93% 2.0 mph NW3.2 kmh NW 5.0 mph8.0 kmh 29.63 in1003.4 mb 0.00 in0.0 mm 0.00 in0.0 mm 0.01 in0.3 mm
04:50 AM 34.1°F1.2°C 32.3°F0.2°C 93% 5.0 mph NNW8.0 kmh NNW 5.0 mph8.0 kmh 29.63 in1003.4 mb 0.00 in0.0 mm 0.00 in0.0 mm 0.01 in0.3 mm
04:45 AM 34.2°F1.2°C 32.4°F0.2°C 93% 2.0 mph NNW3.2 kmh NNW 5.0 mph8.0 kmh 29.63 in1003.4 mb 0.00 in0.0 mm 0.00 in0.0 mm 0.01 in0.3 mm
04:40 AM 34.1°F1.2°C 32.3°F0.2°C 93% 2.0 mph NW3.2 kmh NW 5.0 mph8.0 kmh 29.63 in1003.4 mb 0.00 in0.0 mm 0.00 in0.0 mm 0.01 in0.3 mm
04:35 AM 34.1°F1.2°C 32.3°F0.2°C 93% 1.0 mph NW1.6 kmh NW 5.0 mph8.0 kmh 29.62 in1003.0 mb 0.00 in0.0 mm 0.00 in0.0 mm 0.01 in0.3 mm
04:30 AM 34.2°F1.2°C 32.1°F0.1°C 92% 1.0 mph NNW1.6 kmh NNW 5.0 mph8.0 kmh 29.62 in1003.0 mb 0.00 in0.0 mm 0.00 in0.0 mm 0.01 in0.3 mm
04:25 AM 34.1°F1.2°C 32.0°F0.0°C 92% 1.0 mph NNE1.6 kmh NNE 6.0 mph9.7 kmh 29.62 in1003.0 mb 0.00 in0.0 mm 0.00 in0.0 mm 0.01 in0.3 mm
04:20 AM 34.2°F1.2°C 32.1°F0.1°C 92% 2.0 mph NW3.2 kmh NW 6.0 mph9.7 kmh 29.62 in1003.0 mb 0.00 in0.0 mm 0.00 in0.0 mm 0.01 in0.3 mm
04:15 AM 34.2°F1.2°C 32.1°F0.1°C 92% 2.0 mph NW3.2 kmh NW 6.0 mph9.7 kmh 29.62 in1003.0 mb 0.00 in0.0 mm 0.00 in0.0 mm 0.01 in0.3 mm
04:10 AM 34.2°F1.2°C 32.1°F0.1°C 92% 2.0 mph WNW3.2 kmh WNW 6.0 mph9.7 kmh 29.62 in1003.0 mb 0.00 in0.0 mm 0.00 in0.0 mm 0.01 in0.3 mm
04:05 AM 34.3°F1.3°C 32.2°F0.1°C 92% 3.0 mph NNW4.8 kmh NNW 6.0 mph9.7 kmh 29.62 in1003.0 mb 0.00 in0.0 mm 0.00 in0.0 mm 0.01 in0.3 mm
04:00 AM 34.3°F1.3°C 32.2°F0.1°C 92% 3.0 mph NW4.8 kmh NW 6.0 mph9.7 kmh 29.62 in1003.0 mb 0.00 in0.0 mm 0.00 in0.0 mm 0.01 in0.3 mm
03:55 AM 34.3°F1.3°C 32.2°F0.1°C 92% 2.0 mph NW3.2 kmh NW 8.0 mph12.9 kmh 29.62 in1003.0 mb 0.01 in0.3 mm 0.00 in0.0 mm 0.01 in0.3 mm
03:50 AM 34.3°F1.3°C 32.2°F0.1°C 92% 2.0 mph NW3.2 kmh NW 8.0 mph12.9 kmh 29.61 in1002.7 mb 0.01 in0.3 mm 0.00 in0.0 mm 0.01 in0.3 mm
03:45 AM 34.4°F1.3°C 32.6°F0.3°C 93% 4.0 mph NW6.4 kmh NW 8.0 mph12.9 kmh 29.61 in1002.7 mb 0.01 in0.3 mm 0.00 in0.0 mm 0.01 in0.3 mm
03:40 AM 34.4°F1.3°C 32.6°F0.3°C 93% 7.0 mph N11.3 kmh N 7.0 mph11.3 kmh 29.61 in1002.7 mb 0.01 in0.3 mm 0.00 in0.0 mm 0.01 in0.3 mm
03:35 AM 34.4°F1.3°C 32.6°F0.3°C 93% 6.0 mph NNW9.7 kmh NNW 7.0 mph11.3 kmh 29.61 in1002.7 mb 0.01 in0.3 mm 0.00 in0.0 mm 0.01 in0.3 mm
03:30 AM 34.4°F1.3°C 32.6°F0.3°C 93% 2.0 mph WNW3.2 kmh WNW 6.0 mph9.7 kmh 29.61 in1002.7 mb 0.01 in0.3 mm 0.00 in0.0 mm 0.01 in0.3 mm
03:25 AM 34.4°F1.3°C 32.6°F0.3°C 93% 4.0 mph NW6.4 kmh NW 7.0 mph11.3 kmh 29.61 in1002.7 mb 0.01 in0.3 mm 0.00 in0.0 mm 0.01 in0.3 mm
03:20 AM 34.4°F1.3°C 32.6°F0.3°C 93% 4.0 mph NW6.4 kmh NW 7.0 mph11.3 kmh 29.61 in1002.7 mb 0.01 in0.3 mm 0.00 in0.0 mm 0.01 in0.3 mm
03:15 AM 34.4°F1.3°C 32.6°F0.3°C 93% 5.0 mph NW8.0 kmh NW 7.0 mph11.3 kmh 29.61 in1002.7 mb 0.01 in0.3 mm 0.00 in0.0 mm 0.01 in0.3 mm
03:10 AM 34.4°F1.3°C 32.6°F0.3°C 93% 4.0 mph NW6.4 kmh NW 6.0 mph9.7 kmh 29.61 in1002.7 mb 0.01 in0.3 mm 0.00 in0.0 mm 0.01 in0.3 mm
03:05 AM 34.4°F1.3°C 32.6°F0.3°C 93% 4.0 mph NW6.4 kmh NW 6.0 mph9.7 kmh 29.61 in1002.7 mb 0.01 in0.3 mm 0.00 in0.0 mm 0.01 in0.3 mm
03:00 AM 34.4°F1.3°C 32.6°F0.3°C 93% 2.0 mph NW3.2 kmh NW 5.0 mph8.0 kmh 29.60 in1002.4 mb 0.01 in0.3 mm 0.00 in0.0 mm 0.01 in0.3 mm
02:55 AM 34.4°F1.3°C 32.6°F0.3°C 93% 3.0 mph NW4.8 kmh NW 7.0 mph11.3 kmh 29.60 in1002.4 mb 0.01 in0.3 mm 0.12 in3.0 mm 0.01 in0.3 mm
02:50 AM 34.4°F1.3°C 32.6°F0.3°C 93% 3.0 mph NW4.8 kmh NW 7.0 mph11.3 kmh 29.60 in1002.4 mb 0.00 in0.0 mm 0.00 in0.0 mm 0.00 in0.0 mm
02:45 AM 34.4°F1.3°C 32.6°F0.3°C 93% 4.0 mph NW6.4 kmh NW 7.0 mph11.3 kmh 29.60 in1002.4 mb 0.00 in0.0 mm 0.00 in0.0 mm 0.00 in0.0 mm
02:40 AM 34.4°F1.3°C 32.6°F0.3°C 93% 1.0 mph NNW1.6 kmh NNW 6.0 mph9.7 kmh 29.60 in1002.4 mb 0.00 in0.0 mm 0.00 in0.0 mm 0.00 in0.0 mm
02:35 AM 34.4°F1.3°C 32.6°F0.3°C 93% 3.0 mph N4.8 kmh N 6.0 mph9.7 kmh 29.60 in1002.4 mb 0.00 in0.0 mm 0.00 in0.0 mm 0.00 in0.0 mm
02:30 AM 34.5°F1.4°C 32.7°F0.4°C 93% 5.0 mph NW8.0 kmh NW 6.0 mph9.7 kmh 29.60 in1002.4 mb 0.00 in0.0 mm 0.00 in0.0 mm 0.00 in0.0 mm
02:25 AM 34.5°F1.4°C 32.4°F0.2°C 92% 3.0 mph NW4.8 kmh NW 6.0 mph9.7 kmh 29.59 in1002.0 mb 0.00 in0.0 mm 0.00 in0.0 mm 0.00 in0.0 mm
02:20 AM 34.6°F1.4°C 32.5°F0.3°C 92% 4.0 mph W6.4 kmh W 5.0 mph8.0 kmh 29.59 in1002.0 mb 0.00 in0.0 mm 0.00 in0.0 mm 0.00 in0.0 mm
02:15 AM 34.5°F1.4°C 32.4°F0.2°C 92% 2.0 mph WNW3.2 kmh WNW 5.0 mph8.0 kmh 29.59 in1002.0 mb 0.00 in0.0 mm 0.00 in0.0 mm 0.00 in0.0 mm
02:10 AM 34.5°F1.4°C 32.4°F0.2°C 92% 1.0 mph NW1.6 kmh NW 5.0 mph8.0 kmh 29.59 in1002.0 mb 0.00 in0.0 mm 0.00 in0.0 mm 0.00 in0.0 mm
02:05 AM 34.5°F1.4°C 32.4°F0.2°C 92% 2.0 mph NW3.2 kmh NW 5.0 mph8.0 kmh 29.59 in1002.0 mb 0.00 in0.0 mm 0.00 in0.0 mm 0.00 in0.0 mm
02:00 AM 34.5°F1.4°C 32.4°F0.2°C 92% 1.0 mph NW1.6 kmh NW 4.0 mph6.4 kmh 29.58 in1001.7 mb 0.00 in0.0 mm 0.00 in0.0 mm 0.00 in0.0 mm
01:55 AM 34.5°F1.4°C 32.4°F0.2°C 92% 3.0 mph NW4.8 kmh NW 4.0 mph6.4 kmh 29.58 in1001.7 mb 0.00 in0.0 mm 0.00 in0.0 mm 0.00 in0.0 mm
01:50 AM 34.6°F1.4°C 32.5°F0.3°C 92% 2.0 mph NW3.2 kmh NW 4.0 mph6.4 kmh 29.58 in1001.7 mb 0.00 in0.0 mm 0.00 in0.0 mm 0.00 in0.0 mm
01:45 AM 34.5°F1.4°C 32.4°F0.2°C 92% 1.0 mph NW1.6 kmh NW 4.0 mph6.4 kmh 29.58 in1001.7 mb 0.00 in0.0 mm 0.00 in0.0 mm 0.00 in0.0 mm
01:40 AM 34.5°F1.4°C 32.4°F0.2°C 92% 3.0 mph NW4.8 kmh NW 4.0 mph6.4 kmh 29.58 in1001.7 mb 0.00 in0.0 mm 0.00 in0.0 mm 0.00 in0.0 mm
01:35 AM 34.6°F1.4°C 32.5°F0.3°C 92% 3.0 mph NW4.8 kmh NW 4.0 mph6.4 kmh 29.57 in1001.4 mb 0.00 in0.0 mm 0.00 in0.0 mm 0.00 in0.0 mm
01:30 AM 34.6°F1.4°C 32.5°F0.3°C 92% Calm Calm 3.0 mph4.8 kmh 29.57 in1001.4 mb 0.00 in0.0 mm 0.00 in0.0 mm 0.00 in0.0 mm
01:25 AM 34.6°F1.4°C 32.5°F0.3°C 92% 3.0 mph W4.8 kmh W 5.0 mph8.0 kmh 29.57 in1001.4 mb 0.00 in0.0 mm 0.00 in0.0 mm 0.00 in0.0 mm
01:20 AM 34.6°F1.4°C 32.5°F0.3°C 92% 1.0 mph W1.6 kmh W 5.0 mph8.0 kmh 29.57 in1001.4 mb 0.00 in0.0 mm 0.00 in0.0 mm 0.00 in0.0 mm
01:15 AM 34.6°F1.4°C 32.5°F0.3°C 92% 2.0 mph NW3.2 kmh NW 5.0 mph8.0 kmh 29.57 in1001.4 mb 0.00 in0.0 mm 0.00 in0.0 mm 0.00 in0.0 mm
01:10 AM 34.6°F1.4°C 32.5°F0.3°C 92% 1.0 mph WNW1.6 kmh WNW 4.0 mph6.4 kmh 29.57 in1001.4 mb 0.00 in0.0 mm 0.00 in0.0 mm 0.00 in0.0 mm
01:05 AM 34.6°F1.4°C 32.5°F0.3°C 92% 2.0 mph NW3.2 kmh NW 4.0 mph6.4 kmh 29.57 in1001.4 mb 0.00 in0.0 mm 0.00 in0.0 mm 0.00 in0.0 mm
01:00 AM 34.6°F1.4°C 32.5°F0.3°C 92% 2.0 mph WNW3.2 kmh WNW 4.0 mph6.4 kmh 29.57 in1001.4 mb 0.00 in0.0 mm 0.00 in0.0 mm 0.00 in0.0 mm
12:55 AM 34.5°F1.4°C 32.4°F0.2°C 92% 3.0 mph NW4.8 kmh NW 5.0 mph8.0 kmh 29.57 in1001.4 mb 0.00 in0.0 mm 0.00 in0.0 mm 0.00 in0.0 mm
12:50 AM 34.6°F1.4°C 32.5°F0.3°C 92% 3.0 mph NW4.8 kmh NW 5.0 mph8.0 kmh 29.57 in1001.4 mb 0.00 in0.0 mm 0.00 in0.0 mm 0.00 in0.0 mm
12:45 AM 34.6°F1.4°C 32.5°F0.3°C 92% 3.0 mph NW4.8 kmh NW 5.0 mph8.0 kmh 29.57 in1001.4 mb 0.00 in0.0 mm 0.00 in0.0 mm 0.00 in0.0 mm
12:40 AM 34.5°F1.4°C 32.4°F0.2°C 92% 1.0 mph WNW1.6 kmh WNW 5.0 mph8.0 kmh 29.57 in1001.4 mb 0.00 in0.0 mm 0.00 in0.0 mm 0.00 in0.0 mm
12:35 AM 34.6°F1.4°C 32.5°F0.3°C 92% 2.0 mph WNW3.2 kmh WNW 5.0 mph8.0 kmh 29.57 in1001.4 mb 0.00 in0.0 mm 0.00 in0.0 mm 0.00 in0.0 mm
12:30 AM 34.6°F1.4°C 32.5°F0.3°C 92% 3.0 mph WNW4.8 kmh WNW 3.0 mph4.8 kmh 29.57 in1001.4 mb 0.00 in0.0 mm 0.00 in0.0 mm 0.00 in0.0 mm
12:25 AM 34.5°F1.4°C 32.4°F0.2°C 92% 4.0 mph W6.4 kmh W 5.0 mph8.0 kmh 29.57 in1001.4 mb 0.00 in0.0 mm 0.00 in0.0 mm 0.00 in0.0 mm
12:20 AM 34.5°F1.4°C 32.4°F0.2°C 92% 2.0 mph WNW3.2 kmh WNW 5.0 mph8.0 kmh 29.56 in1001.0 mb 0.00 in0.0 mm 0.00 in0.0 mm 0.00 in0.0 mm
12:15 AM 34.5°F1.4°C 32.4°F0.2°C 92% 1.0 mph WNW1.6 kmh WNW 5.0 mph8.0 kmh 29.56 in1001.0 mb 0.00 in0.0 mm 0.00 in0.0 mm 0.00 in0.0 mm
12:10 AM 34.5°F1.4°C 32.4°F0.2°C 92% 3.0 mph NW4.8 kmh NW 5.0 mph8.0 kmh 29.57 in1001.4 mb 0.00 in0.0 mm 0.00 in0.0 mm 0.00 in0.0 mm
12:05 AM 34.4°F1.3°C 32.3°F0.2°C 92% 1.0 mph WNW1.6 kmh WNW 4.0 mph6.4 kmh 29.56 in1001.0 mb 0.00 in0.0 mm 0.00 in0.0 mm 0.00 in0.0 mm
12:00 AM 34.5°F1.4°C 32.4°F0.2°C 92% 3.0 mph WNW4.8 kmh WNW 4.0 mph6.4 kmh 29.56 in1001.0 mb 0.00 in0.0 mm 0.00 in0.0 mm 0.00 in0.0 mm